Hlavní strana
METAR-TAF:

METAR-TAF

Letiště :

Mora–Siljan

Mora, Švédsko

zeměpisná šířka: 60-57-31N, zeměpisná délka: 14-30-40E, výška: 193 m

Aktuální stav počasí

Zpráva byla vytvořena před 18 minutami, v 08:20 UTC
Jižní vítr 5 kt, proměnlivý mezi jihojihovýchodním a jihozápadním
Teplota 9°C
Vlhkost vzduchu 93%
Tlak 1021 hPa
Viditelnost: 9000 m
kouřmo

METAR: ESKM 150820Z AUTO 19005KT 160V230 9000 BR OVC006/// 09/08 Q1021

Čas: 09:38 (08:38 UTC)


TAF: chybějící

Stav a předpovědi počasí z více než 4 000 letišť (zprávy METAR a TAF).

Červené a žluté tečky na mapě představují dostupné meteorologické stanice.

Když kurzor umístíte na tečku, zobrazí se název stanice.

Pak kliknutím zobrazíte stav a předpověď počasí.

Chcete-li změnit mapu, kliknutím na zelené tlačítko se znaménkem +mapu přiblížíte, kliknutím na zelené tlačítko se znaménkem – mapu oddálíte a kliknutím na zelené šipky přejdete na sousední mapy.


METAR-TAF: